AVA9725 SKRG-SKBO
Flight info
| Callsign | AVA9725 |
|---|---|
| Flight time | 0h 26m |
| Altitude | 21000 |
| Route | ISVAT2B ISVAT ISVAT4E |
| Aircraft | A320/M-SDE3FGHIRWY/LB1 |
Departure
| Time | 2026-04-25 13:15 |
|---|---|
| Airport | Jose Maria Córdova International Airport (SKRG) |
Arrival
| Time | 2026-04-25 13:41 |
|---|---|
| Airport | El Dorado International Airport (SKBO) |
| Time | Latitude | Longitude | Altitude | Speed | Heading |
|---|---|---|---|---|---|
| 2026-04-25 12:42 | 6.16970 | -75.42799 | 7016 ft | 0 kts | 340° |
| 2026-04-25 12:55 | 6.16947 | -75.42790 | 7017 ft | 4 kts | 351° |
| 2026-04-25 12:55 | 6.16923 | -75.42794 | 7018 ft | 4 kts | 51° |
| 2026-04-25 12:56 | 6.16915 | -75.42810 | 7020 ft | 0 kts | 76° |
| 2026-04-25 13:01 | 6.16917 | -75.42801 | 7020 ft | 2 kts | 76° |
| 2026-04-25 13:02 | 6.16926 | -75.42777 | 7021 ft | 5 kts | 68° |
| 2026-04-25 13:02 | 6.16948 | -75.42735 | 7021 ft | 8 kts | 58° |
| 2026-04-25 13:02 | 6.16994 | -75.42687 | 7017 ft | 10 kts | 39° |
| 2026-04-25 13:02 | 6.17000 | -75.42681 | 7018 ft | 0 kts | 39° |
| 2026-04-25 13:03 | 6.17005 | -75.42677 | 6991 ft | 3 kts | 40° |
| 2026-04-25 13:03 | 6.17018 | -75.42666 | 7020 ft | 2 kts | 40° |
| 2026-04-25 13:04 | 6.17034 | -75.42650 | 7020 ft | 4 kts | 48° |
| 2026-04-25 13:04 | 6.17047 | -75.42608 | 7017 ft | 9 kts | 94° |
| 2026-04-25 13:04 | 6.17004 | -75.42565 | 7018 ft | 10 kts | 148° |
| 2026-04-25 13:04 | 6.16935 | -75.42525 | 7019 ft | 13 kts | 150° |
| 2026-04-25 13:05 | 6.16841 | -75.42485 | 7015 ft | 17 kts | 178° |
| 2026-04-25 13:05 | 6.16709 | -75.42485 | 7012 ft | 22 kts | 180° |
| 2026-04-25 13:05 | 6.16560 | -75.42485 | 7005 ft | 23 kts | 180° |
| 2026-04-25 13:05 | 6.16479 | -75.42484 | 7001 ft | 0 kts | 180° |
| 2026-04-25 13:06 | 6.16457 | -75.42483 | 6997 ft | 5 kts | 178° |
| 2026-04-25 13:07 | 6.16415 | -75.42482 | 6992 ft | 7 kts | 178° |
| 2026-04-25 13:07 | 6.16367 | -75.42481 | 6996 ft | 7 kts | 179° |
| 2026-04-25 13:07 | 6.16312 | -75.42482 | 6985 ft | 8 kts | 181° |
| 2026-04-25 13:07 | 6.16253 | -75.42483 | 6992 ft | 9 kts | 181° |
| 2026-04-25 13:08 | 6.16190 | -75.42484 | 6990 ft | 9 kts | 180° |
| 2026-04-25 13:08 | 6.16128 | -75.42482 | 6988 ft | 9 kts | 179° |
| 2026-04-25 13:08 | 6.16071 | -75.42481 | 6984 ft | 8 kts | 180° |
| 2026-04-25 13:08 | 6.16019 | -75.42481 | 6986 ft | 7 kts | 179° |
| 2026-04-25 13:09 | 6.15965 | -75.42480 | 6985 ft | 8 kts | 180° |
| 2026-04-25 13:09 | 6.15914 | -75.42480 | 6984 ft | 7 kts | 180° |
| 2026-04-25 13:09 | 6.15872 | -75.42480 | 6984 ft | 6 kts | 180° |
| 2026-04-25 13:09 | 6.15836 | -75.42480 | 6983 ft | 5 kts | 180° |
| 2026-04-25 13:10 | 6.15792 | -75.42481 | 6983 ft | 8 kts | 180° |
| 2026-04-25 13:10 | 6.15722 | -75.42481 | 6982 ft | 12 kts | 179° |
| 2026-04-25 13:10 | 6.15629 | -75.42479 | 6981 ft | 15 kts | 180° |
| 2026-04-25 13:10 | 6.15510 | -75.42480 | 6980 ft | 19 kts | 178° |
| 2026-04-25 13:11 | 6.15371 | -75.42477 | 6979 ft | 21 kts | 179° |
| 2026-04-25 13:11 | 6.15214 | -75.42475 | 6978 ft | 24 kts | 179° |
| 2026-04-25 13:11 | 6.15054 | -75.42474 | 6977 ft | 22 kts | 180° |
| 2026-04-25 13:11 | 6.14946 | -75.42474 | 6977 ft | 12 kts | 180° |
| 2026-04-25 13:12 | 6.14900 | -75.42433 | 6977 ft | 7 kts | 89° |
| 2026-04-25 13:12 | 6.14900 | -75.42420 | 6977 ft | 0 kts | 89° |
| 2026-04-25 13:14 | 6.14900 | -75.42413 | 6977 ft | 2 kts | 89° |
| 2026-04-25 13:14 | 6.14905 | -75.42364 | 6977 ft | 12 kts | 74° |
| 2026-04-25 13:14 | 6.14994 | -75.42304 | 6976 ft | 20 kts | 1° |
| 2026-04-25 13:14 | 6.15213 | -75.42300 | 6980 ft | 59 kts | 0° |
| 2026-04-25 13:15 | 6.15863 | -75.42306 | 6982 ft | 128 kts | 359° |
| 2026-04-25 13:15 | 6.16944 | -75.42315 | 7069 ft | 175 kts | 360° |
| 2026-04-25 13:15 | 6.18189 | -75.42314 | 7908 ft | 181 kts | 360° |
| 2026-04-25 13:15 | 6.19455 | -75.42306 | 8623 ft | 182 kts | 360° |
| 2026-04-25 13:16 | 6.20796 | -75.42317 | 8840 ft | 202 kts | 358° |
| 2026-04-25 13:16 | 6.22226 | -75.42217 | 9106 ft | 217 kts | 17° |
| 2026-04-25 13:16 | 6.23467 | -75.41362 | 9536 ft | 222 kts | 57° |
| 2026-04-25 13:16 | 6.23860 | -75.39886 | 10040 ft | 223 kts | 98° |
| 2026-04-25 13:17 | 6.23218 | -75.38498 | 10528 ft | 222 kts | 130° |
| 2026-04-25 13:17 | 6.22156 | -75.37360 | 10979 ft | 223 kts | 136° |
| 2026-04-25 13:17 | 6.21062 | -75.36263 | 11440 ft | 225 kts | 136° |
| 2026-04-25 13:17 | 6.19946 | -75.35146 | 11891 ft | 227 kts | 136° |
| 2026-04-25 13:18 | 6.18824 | -75.34023 | 12336 ft | 229 kts | 135° |
| 2026-04-25 13:18 | 6.17746 | -75.32833 | 12765 ft | 231 kts | 137° |
| 2026-04-25 13:18 | 6.16428 | -75.31930 | 13064 ft | 238 kts | 156° |
| 2026-04-25 13:18 | 6.14862 | -75.31226 | 13192 ft | 255 kts | 158° |
| 2026-04-25 13:19 | 6.13147 | -75.30504 | 13295 ft | 278 kts | 159° |
| 2026-04-25 13:19 | 6.11276 | -75.29736 | 13453 ft | 301 kts | 159° |
| 2026-04-25 13:19 | 6.09317 | -75.28936 | 13888 ft | 311 kts | 159° |
| 2026-04-25 13:19 | 6.08633 | -75.28656 | 14087 ft | 313 kts | 159° |
| 2026-04-25 13:20 | 6.05243 | -75.27267 | 15004 ft | 320 kts | 158° |
| 2026-04-25 13:20 | 6.03172 | -75.26413 | 15563 ft | 323 kts | 158° |
| 2026-04-25 13:20 | 6.01079 | -75.25546 | 16125 ft | 327 kts | 158° |
| 2026-04-25 13:20 | 5.98966 | -75.24671 | 16686 ft | 330 kts | 158° |
| 2026-04-25 13:21 | 5.96829 | -75.23788 | 17235 ft | 334 kts | 158° |
| 2026-04-25 13:21 | 5.94638 | -75.22885 | 17457 ft | 349 kts | 158° |
| 2026-04-25 13:21 | 5.92360 | -75.21947 | 17547 ft | 366 kts | 158° |
| 2026-04-25 13:21 | 5.89950 | -75.20953 | 17788 ft | 378 kts | 158° |
| 2026-04-25 13:22 | 5.87491 | -75.19938 | 18235 ft | 384 kts | 158° |
| 2026-04-25 13:22 | 5.85005 | -75.18912 | 18685 ft | 387 kts | 158° |
| 2026-04-25 13:22 | 5.82497 | -75.17878 | 19153 ft | 390 kts | 158° |
| 2026-04-25 13:23 | 5.77470 | -75.15802 | 20093 ft | 395 kts | 158° |
| 2026-04-25 13:23 | 5.74911 | -75.14745 | 20556 ft | 398 kts | 158° |
| 2026-04-25 13:23 | 5.72344 | -75.13686 | 20956 ft | 401 kts | 158° |
| 2026-04-25 13:23 | 5.69760 | -75.12623 | 21063 ft | 399 kts | 158° |
| 2026-04-25 13:24 | 5.67243 | -75.11582 | 21094 ft | 385 kts | 158° |
| 2026-04-25 13:24 | 5.64778 | -75.10563 | 21088 ft | 381 kts | 158° |
| 2026-04-25 13:24 | 5.62347 | -75.09560 | 21090 ft | 380 kts | 158° |
| 2026-04-25 13:24 | 5.59898 | -75.08550 | 21088 ft | 380 kts | 158° |
| 2026-04-25 13:25 | 5.57447 | -75.07541 | 21089 ft | 380 kts | 158° |
| 2026-04-25 13:25 | 5.54999 | -75.06536 | 21083 ft | 380 kts | 158° |
| 2026-04-25 13:25 | 5.52577 | -75.05539 | 21080 ft | 380 kts | 158° |
| 2026-04-25 13:25 | 5.50125 | -75.04529 | 21076 ft | 379 kts | 158° |
| 2026-04-25 13:26 | 5.47677 | -75.03520 | 21070 ft | 379 kts | 158° |
| 2026-04-25 13:26 | 5.45259 | -75.02524 | 21064 ft | 379 kts | 158° |
| 2026-04-25 13:26 | 5.42809 | -75.01513 | 21064 ft | 379 kts | 158° |
| 2026-04-25 13:26 | 5.40361 | -75.00504 | 21063 ft | 379 kts | 158° |
| 2026-04-25 13:27 | 5.37916 | -74.99498 | 21061 ft | 379 kts | 158° |
| 2026-04-25 13:27 | 5.35477 | -74.98483 | 21061 ft | 379 kts | 158° |
| 2026-04-25 13:27 | 5.33043 | -74.97456 | 21043 ft | 379 kts | 157° |
| 2026-04-25 13:27 | 5.30654 | -74.96440 | 20607 ft | 377 kts | 157° |
| 2026-04-25 13:28 | 5.28251 | -74.95413 | 20391 ft | 368 kts | 157° |
| 2026-04-25 13:28 | 5.27461 | -74.95075 | 20349 ft | 365 kts | 157° |
| 2026-04-25 13:28 | 5.23628 | -74.93433 | 19646 ft | 356 kts | 156° |
| 2026-04-25 13:28 | 5.21526 | -74.92193 | 19123 ft | 352 kts | 142° |
| 2026-04-25 13:29 | 5.19779 | -74.90516 | 18703 ft | 345 kts | 129° |
| 2026-04-25 13:29 | 5.18458 | -74.88526 | 18187 ft | 341 kts | 120° |
| 2026-04-25 13:29 | 5.17287 | -74.86457 | 17668 ft | 340 kts | 120° |
| 2026-04-25 13:30 | 5.14935 | -74.82349 | 17120 ft | 338 kts | 120° |
| 2026-04-25 13:30 | 5.13770 | -74.80343 | 16872 ft | 336 kts | 121° |
| 2026-04-25 13:30 | 5.12590 | -74.78316 | 16621 ft | 335 kts | 121° |
| 2026-04-25 13:31 | 5.10246 | -74.74282 | 16134 ft | 333 kts | 121° |
| 2026-04-25 13:31 | 5.09078 | -74.72270 | 15891 ft | 332 kts | 121° |
| 2026-04-25 13:31 | 5.07932 | -74.70296 | 15652 ft | 330 kts | 121° |
| 2026-04-25 13:31 | 5.06777 | -74.68301 | 15427 ft | 329 kts | 121° |
| 2026-04-25 13:32 | 5.05623 | -74.66310 | 15202 ft | 328 kts | 121° |
| 2026-04-25 13:32 | 5.04472 | -74.64329 | 14966 ft | 327 kts | 121° |
| 2026-04-25 13:32 | 5.03344 | -74.62385 | 14740 ft | 326 kts | 121° |
| 2026-04-25 13:32 | 5.02206 | -74.60418 | 14520 ft | 324 kts | 121° |
| 2026-04-25 13:33 | 5.01075 | -74.58462 | 14301 ft | 323 kts | 121° |
| 2026-04-25 13:33 | 4.99950 | -74.56518 | 14083 ft | 322 kts | 121° |
| 2026-04-25 13:33 | 4.98825 | -74.54576 | 13861 ft | 320 kts | 121° |
| 2026-04-25 13:33 | 4.98460 | -74.53947 | 13781 ft | 320 kts | 121° |
| 2026-04-25 13:34 | 4.96610 | -74.50763 | 13368 ft | 314 kts | 121° |
| 2026-04-25 13:34 | 4.95516 | -74.48881 | 13113 ft | 310 kts | 120° |
| 2026-04-25 13:34 | 4.94436 | -74.47024 | 12879 ft | 305 kts | 120° |
| 2026-04-25 13:34 | 4.93373 | -74.45198 | 12719 ft | 298 kts | 120° |
| 2026-04-25 13:35 | 4.92365 | -74.43459 | 12722 ft | 285 kts | 120° |
| 2026-04-25 13:35 | 4.91377 | -74.41763 | 12750 ft | 277 kts | 122° |
| 2026-04-25 13:35 | 4.90244 | -74.40207 | 12780 ft | 276 kts | 127° |
| 2026-04-25 13:35 | 4.89082 | -74.38675 | 12809 ft | 275 kts | 127° |
| 2026-04-25 13:36 | 4.87943 | -74.37169 | 12826 ft | 263 kts | 127° |
| 2026-04-25 13:36 | 4.86875 | -74.35751 | 12846 ft | 250 kts | 127° |
| 2026-04-25 13:36 | 4.86188 | -74.34841 | 12852 ft | 241 kts | 127° |
| 2026-04-25 13:36 | 4.85193 | -74.33526 | 12664 ft | 232 kts | 127° |
| 2026-04-25 13:37 | 4.83920 | -74.31841 | 12296 ft | 224 kts | 127° |
| 2026-04-25 13:37 | 4.82982 | -74.30601 | 12034 ft | 222 kts | 127° |
| 2026-04-25 13:37 | 4.82050 | -74.29368 | 11752 ft | 220 kts | 127° |
| 2026-04-25 13:37 | 4.81435 | -74.28555 | 11582 ft | 220 kts | 127° |
| 2026-04-25 13:38 | 4.80209 | -74.26934 | 11236 ft | 216 kts | 127° |
| 2026-04-25 13:38 | 4.79616 | -74.26151 | 11068 ft | 209 kts | 127° |
| 2026-04-25 13:38 | 4.78758 | -74.25016 | 10843 ft | 198 kts | 127° |
| 2026-04-25 13:38 | 4.77933 | -74.23925 | 10608 ft | 194 kts | 127° |
| 2026-04-25 13:39 | 4.77135 | -74.22871 | 10393 ft | 182 kts | 127° |
| 2026-04-25 13:39 | 4.76406 | -74.21906 | 10164 ft | 171 kts | 127° |
| 2026-04-25 13:39 | 4.75692 | -74.20963 | 9950 ft | 167 kts | 127° |
| 2026-04-25 13:39 | 4.74990 | -74.20034 | 9717 ft | 166 kts | 127° |
| 2026-04-25 13:40 | 4.74296 | -74.19117 | 9494 ft | 165 kts | 127° |
| 2026-04-25 13:40 | 4.73604 | -74.18201 | 9245 ft | 164 kts | 126° |
| 2026-04-25 13:40 | 4.72926 | -74.17306 | 8994 ft | 162 kts | 126° |
| 2026-04-25 13:40 | 4.72245 | -74.16403 | 8738 ft | 161 kts | 126° |
| 2026-04-25 13:41 | 4.71570 | -74.15501 | 8486 ft | 160 kts | 125° |
| 2026-04-25 13:41 | 4.70917 | -74.14639 | 8365 ft | 138 kts | 128° |
| 2026-04-25 13:41 | 4.70447 | -74.14021 | 8365 ft | 86 kts | 128° |
| 2026-04-25 13:41 | 4.70195 | -74.13710 | 8365 ft | 37 kts | 145° |
| 2026-04-25 13:42 | 4.70044 | -74.13630 | 8366 ft | 18 kts | 157° |
| 2026-04-25 13:42 | 4.69970 | -74.13598 | 8366 ft | 10 kts | 157° |
| 2026-04-25 13:42 | 4.69960 | -74.13594 | 8366 ft | 0 kts | 158° |
| 2026-04-25 13:44 | 4.69951 | -74.13591 | 8366 ft | 3 kts | 159° |
| 2026-04-25 13:45 | 4.69925 | -74.13590 | 8366 ft | 4 kts | 192° |
| 2026-04-25 13:45 | 4.69906 | -74.13613 | 8366 ft | 5 kts | 253° |
| 2026-04-25 13:45 | 4.69913 | -74.13645 | 8366 ft | 5 kts | 294° |
| 2026-04-25 13:45 | 4.69934 | -74.13677 | 8366 ft | 6 kts | 306° |
| 2026-04-25 13:46 | 4.69961 | -74.13713 | 8366 ft | 7 kts | 307° |
| 2026-04-25 13:46 | 4.69990 | -74.13752 | 8366 ft | 7 kts | 307° |
| 2026-04-25 13:46 | 4.70021 | -74.13792 | 8366 ft | 7 kts | 308° |
| 2026-04-25 13:46 | 4.70050 | -74.13831 | 8366 ft | 7 kts | 307° |
| 2026-04-25 13:47 | 4.70077 | -74.13866 | 8366 ft | 6 kts | 307° |
| 2026-04-25 13:47 | 4.70102 | -74.13899 | 8366 ft | 6 kts | 307° |
| 2026-04-25 13:47 | 4.70128 | -74.13933 | 8366 ft | 7 kts | 307° |
| 2026-04-25 13:47 | 4.70161 | -74.13976 | 8366 ft | 9 kts | 307° |
| 2026-04-25 13:48 | 4.70201 | -74.14029 | 8366 ft | 10 kts | 307° |
| 2026-04-25 13:48 | 4.70249 | -74.14085 | 8366 ft | 11 kts | 315° |
| 2026-04-25 13:48 | 4.70294 | -74.14150 | 8366 ft | 12 kts | 304° |
| 2026-04-25 13:48 | 4.70344 | -74.14219 | 8366 ft | 12 kts | 306° |
| 2026-04-25 13:49 | 4.70379 | -74.14266 | 8366 ft | 9 kts | 308° |
| 2026-04-25 13:49 | 4.70419 | -74.14317 | 8366 ft | 10 kts | 308° |
| 2026-04-25 13:49 | 4.70463 | -74.14375 | 8366 ft | 11 kts | 305° |
| 2026-04-25 13:49 | 4.70499 | -74.14446 | 8366 ft | 10 kts | 265° |
| 2026-04-25 13:50 | 4.70454 | -74.14489 | 8367 ft | 10 kts | 214° |
| 2026-04-25 13:50 | 4.70395 | -74.14529 | 8366 ft | 9 kts | 217° |
| 2026-04-25 13:50 | 4.70393 | -74.14531 | 8366 ft | 0 kts | 217° |
| 2026-04-25 13:51 | 4.70384 | -74.14537 | 8366 ft | 4 kts | 214° |
| 2026-04-25 13:51 | 4.70345 | -74.14565 | 8366 ft | 9 kts | 217° |
| 2026-04-25 13:51 | 4.70286 | -74.14609 | 8366 ft | 12 kts | 217° |
| 2026-04-25 13:51 | 4.70242 | -74.14642 | 8366 ft | 0 kts | 217° |
| 2026-04-25 13:52 | 4.70233 | -74.14649 | 8366 ft | 4 kts | 216° |
| 2026-04-25 13:52 | 4.70203 | -74.14671 | 8366 ft | 7 kts | 217° |
| 2026-04-25 13:52 | 4.70172 | -74.14695 | 8366 ft | 0 kts | 217° |
| 2026-04-25 13:53 | 4.70159 | -74.14705 | 8366 ft | 4 kts | 217° |
| 2026-04-25 13:53 | 4.70117 | -74.14736 | 8366 ft | 11 kts | 217° |
| 2026-04-25 13:53 | 4.70036 | -74.14797 | 8366 ft | 17 kts | 216° |
| 2026-04-25 13:53 | 4.69951 | -74.14840 | 8366 ft | 11 kts | 170° |
| 2026-04-25 13:54 | 4.69918 | -74.14805 | 8366 ft | 7 kts | 126° |
| 2026-04-25 13:54 | 4.69887 | -74.14764 | 8366 ft | 9 kts | 126° |
| 2026-04-25 13:54 | 4.69849 | -74.14710 | 8366 ft | 10 kts | 125° |
| 2026-04-25 13:54 | 4.69804 | -74.14650 | 8366 ft | 8 kts | 127° |
| 2026-04-25 13:55 | 4.69769 | -74.14604 | 8366 ft | 6 kts | 127° |
| 2026-04-25 13:55 | 4.69779 | -74.14568 | 8366 ft | 4 kts | 37° |
| 2026-04-25 13:55 | 4.69791 | -74.14560 | 8366 ft | 3 kts | 36° |
| 2026-04-25 13:55 | 4.69799 | -74.14554 | 8366 ft | 0 kts | 36° |